Impacts METAR Board
IDs:

KDTW - Detroit Metro/Wayne, MI, US

Updated at: 2000 UTC 25 Apr 2018
Potential Impact None Slight Moderate High
Time 25/08Z 25/09Z 25/10Z 25/11Z 25/12Z 25/13Z 25/14Z 25/15Z 25/16Z 25/17Z 25/18Z 25/19Z 25/20Z
Temp51 51 51 52 52 52 50 51 54 59 60 59 60
Dewpt48 48 48 49 48 47 44 43 42 42 40 38 37
Altim29.91 29.91 29.90 29.91 29.91 29.93 29.94 29.95 29.94 29.93 29.91 29.92 29.92
VIS1.25 0.75 1.5 2.5 4 6 9 8 10 10 10 10 10
CIG2 2 4 4 12 16 11 15 220 -- 40 -- --
CoverOVCOVCOVCOVCOVCOVCOVCOVCBKNSCTBKNSCTSCT
FltCatLIFRLIFRLIFRLIFRMVFRMVFRMVFRMVFRVFRVFRVFRVFRVFR
WX-RA BR-RA BR-RA BR-RA BRBRHZ--------------
WDir360360350360350330350340360340360340360
WSpd4 5 5 6 6 11 10 10 10 10 14 11 12
WGst-- -- -- -- -- 18 19 -- -- 15 20 -- 17
Raw hourly METARs
KDTW 250757Z 36004KT 1 1/4SM -RA BR OVC002 11/09 A2991 RMK AO2 P0000 T01060089
KDTW 250853Z 36005KT 3/4SM R03R/P6000FT -RA BR OVC002 11/09 A2991 RMK AO2 TWR VIS 1 1/4 SLP128 P0001 60001 T01060089 56010
KDTW 250953Z 35005KT 1 1/2SM -RA BR OVC004 11/09 A2990 RMK AO2 SLP127 P0001 T01060089
KDTW 251053Z 36006KT 2 1/2SM -RA BR OVC004 11/09 A2991 RMK AO2 SLP128 P0000 T01110094
KDTW 251153Z 35006KT 4SM BR SCT007 BKN012 OVC020 11/09 A2991 RMK AO2 RAE33DZB33E47 SLP131 P0000 60002 70022 T01110089 10111 20100 53003
KDTW 251253Z 33011G18KT 6SM HZ BKN016 OVC021 11/08 A2993 RMK AO2 SLP136 T01110083
KDTW 251353Z 35010G19KT 9SM OVC011 10/07 A2994 RMK AO2 SLP142 T01000067
KDTW 251453Z 34010KT 8SM BKN015 OVC030 11/06 A2995 RMK AO2 SLP142 T01060061 51010
KDTW 251553Z 36010KT 10SM FEW020 FEW080 BKN220 12/06 A2994 RMK AO2 SLP139 T01220056
KDTW 251653Z 34010G15KT 10SM SCT030 SCT230 15/06 A2993 RMK AO2 SLP135 T01500056
KDTW 251753Z 36014G20KT 10SM BKN040 16/04 A2991 RMK AO2 SLP128 T01560044 10156 20094 58012
KDTW 251853Z 34011KT 10SM SCT050 15/03 A2992 RMK AO2 SLP130 T01500033
KDTW 251953Z 36012G17KT 10SM SCT050 16/03 A2992 RMK AO2 SLP130 T01560028



Page loaded:  20:18 UTC  |   01:18 PM Pacific  |   02:18 PM Mountain  |   03:18 PM Central  |   04:18 PM Eastern

 

ADVISORIES

FORECASTS

FORECASTS

OBSERVATIONS

USER TOOLS

ABOUT US